Time;durP1;ratioP1;P1;durP2;ratioP2;P2;SDS_P1;SDS_P2;PMS_P1;PMS_P2;Temp;Humidity;BMP_temperature;BMP_pressure;BME280_temperature;BME280_humidity;BME280_pressure;Samples;Min_cycle;Max_cycle;Signal;HPM_P1;HPM_P2
2022/05/24 00:00:23;;;;;;;;;;;;;;;12.98;56.24;99621.23;107917;1270;110101;-66
2022/05/24 00:03:05;;;;;;;;;;;;;;;12.95;56.33;99624.36;107834;1270;123437;-66
2022/05/24 00:05:37;;;;;;;;;;;;;;;12.91;56.67;99616.71;107924;1270;108131;-66
2022/05/24 00:08:08;;;;;;;;;;;;;;;12.85;56.74;99623.15;107038;1270;125012;-67
2022/05/24 00:10:41;;;;;;;;;;;;;;;12.79;57.02;99623.30;107924;1270;94414;-66
2022/05/24 00:13:13;;;;;;;;;;;;;;;12.72;57.23;99630.11;107021;1270;123884;-67
2022/05/24 00:15:43;;;;;;;;;;;;;;;12.66;57.63;99633.73;106506;1270;107084;-66
2022/05/24 00:18:16;;;;;;;;;;;;;;;12.60;57.56;99626.89;107887;1270;108986;-66
2022/05/24 00:20:48;;;;;;;;;;;;;;;12.56;57.78;99623.55;107814;1270;124601;-66
2022/05/24 00:23:19;;;;;;;;;;;;;;;12.54;58.04;99620.52;107934;1270;94758;-67
2022/05/24 00:25:52;;;;;;;;;;;;;;;12.52;57.82;99616.09;107447;1270;123706;-66
2022/05/24 00:28:24;;;;;;;;;;;;;;;12.50;57.93;99617.27;106753;1270;108771;-66
2022/05/24 00:30:55;;;;;;;;;;;;;;;12.48;58.13;99616.51;106248;1271;124598;-66
2022/05/24 00:33:27;;;;;;;;;;;;;;;12.43;58.17;99613.98;106494;1270;96503;-66
2022/05/24 00:35:57;;;;;;;;;;;;;;;12.35;58.64;99613.80;107904;1270;94669;-66
2022/05/24 00:38:30;;;;;;;;;;;;;;;12.29;58.69;99610.64;106776;1270;123551;-66
2022/05/24 00:41:05;;;;;;;;;;;;;;;12.24;58.58;99610.92;107927;1270;107783;-65
2022/05/24 00:43:38;;;;;;;;;;;;;;;12.19;58.68;99610.41;107787;1270;124023;-67
2022/05/24 00:46:12;;;;;;;;;;;;;;;12.14;58.97;99611.21;107922;1270;94604;-66
2022/05/24 00:48:46;;;;;;;;;;;;;;;12.08;58.92;99610.24;106807;1270;123984;-66
2022/05/24 00:51:21;;;;;;;;;;;;;;;12.04;59.24;99610.30;106445;1270;110026;-66
2022/05/24 00:53:53;;;;;;;;;;;;;;;11.99;59.56;99605.10;106310;1271;108477;-67
2022/05/24 00:56:31;;;;;;;;;;;;;;;11.95;59.87;99601.30;106342;1270;125371;-66
2022/05/24 00:59:04;;;;;;;;;;;;;;;11.91;59.67;99599.23;106471;1270;97099;-65
2022/05/24 01:01:36;;;;;;;;;;;;;;;11.89;59.71;99603.20;106637;1270;124354;-67
2022/05/24 01:04:08;;;;;;;;;;;;;;;11.89;59.80;99607.39;107925;1270;111207;-65
2022/05/24 01:06:39;;;;;;;;;;;;;;;11.87;59.94;99613.20;107655;1270;108977;-64
2022/05/24 01:09:12;;;;;;;;;;;;;;;11.83;59.90;99610.92;106511;1270;108855;-64
2022/05/24 01:11:43;;;;;;;;;;;;;;;11.79;60.05;99609.04;106476;1270;96505;-67
2022/05/24 01:14:15;;;;;;;;;;;;;;;11.75;60.33;99612.16;106578;1270;123751;-67
2022/05/24 01:16:47;;;;;;;;;;;;;;;11.69;60.36;99609.85;106522;1270;108975;-67
2022/05/24 01:19:20;;;;;;;;;;;;;;;11.61;60.75;99604.63;107550;1270;123957;-66
2022/05/24 01:21:50;;;;;;;;;;;;;;;11.54;60.93;99604.82;107927;1270;106142;-66
2022/05/24 01:24:26;;;;;;;;;;;;;;;11.47;60.84;99603.39;107937;1270;94602;-65
2022/05/24 01:26:57;;;;;;;;;;;;;;;11.41;61.27;99606.10;107833;1270;123937;-66
2022/05/24 01:29:28;;;;;;;;;;;;;;;11.37;61.34;99604.16;107888;1270;110712;-66
2022/05/24 01:37:34;;;;;;;;;;;;;;;11.39;61.58;99604.81;106318;1270;124560;-67
2022/05/24 01:40:06;;;;;;;;;;;;;;;11.40;61.52;99602.11;106407;1270;96465;-66
2022/05/24 01:42:38;;;;;;;;;;;;;;;11.40;61.74;99604.92;106565;1270;110587;-68
2022/05/24 01:45:13;;;;;;;;;;;;;;;11.38;61.70;99605.50;106365;1271;108836;-67
2022/05/24 01:47:46;;;;;;;;;;;;;;;11.37;61.84;99605.21;106926;1270;108747;-67
2022/05/24 01:50:18;;;;;;;;;;;;;;;11.33;61.98;99598.47;106370;1270;124745;-67
2022/05/24 01:52:51;;;;;;;;;;;;;;;11.28;62.01;99602.13;106479;1270;96493;-67
2022/05/24 01:55:26;;;;;;;;;;;;;;;11.23;62.35;99596.29;106397;1270;123765;-67
2022/05/24 01:58:00;;;;;;;;;;;;;;;11.18;62.25;99598.26;106449;1270;108876;-67
2022/05/24 02:00:30;;;;;;;;;;;;;;;11.14;62.32;99598.27;106435;1270;109146;-67
2022/05/24 02:03:01;;;;;;;;;;;;;;;11.09;62.50;99592.73;107765;1271;124581;-67
2022/05/24 02:05:34;;;;;;;;;;;;;;;11.06;62.55;99592.55;106573;1270;96601;-67
2022/05/24 02:08:07;;;;;;;;;;;;;;;11.05;62.90;99588.61;106332;1270;124294;-67
2022/05/24 02:10:40;;;;;;;;;;;;;;;11.03;63.07;99585.35;107601;1270;108768;-65
2022/05/24 02:13:11;;;;;;;;;;;;;;;11.03;63.24;99592.65;106319;1270;126179;-67
2022/05/24 02:15:44;;;;;;;;;;;;;;;11.03;63.28;99598.06;106455;1270;96578;-66
2022/05/24 02:18:15;;;;;;;;;;;;;;;11.01;63.52;99595.19;106294;1271;96484;-67
2022/05/24 02:20:46;;;;;;;;;;;;;;;10.98;63.58;99592.55;106381;1270;123624;-66
2022/05/24 02:23:18;;;;;;;;;;;;;;;10.94;63.71;99586.27;107347;1270;109511;-66
2022/05/24 02:25:50;;;;;;;;;;;;;;;10.90;63.82;99585.21;106612;1270;124823;-66
2022/05/24 02:28:23;;;;;;;;;;;;;;;10.85;64.18;99584.23;107884;1270;94731;-66
2022/05/24 02:30:54;;;;;;;;;;;;;;;10.82;63.93;99585.09;106884;1270;124272;-68
2022/05/24 02:33:24;;;;;;;;;;;;;;;10.81;64.19;99585.48;106991;1271;110316;-66
2022/05/24 02:35:55;;;;;;;;;;;;;;;10.80;64.15;99586.55;107915;1270;107917;-66
2022/05/24 02:38:25;;;;;;;;;;;;;;;10.82;64.22;99586.30;107801;1270;125978;-66
2022/05/24 02:43:44;;;;;;;;;;;;;;;10.89;64.18;99578.85;107837;1270;123826;-66
2022/05/24 02:46:15;;;;;;;;;;;;;;;10.91;64.35;99575.45;107418;1270;110180;-67
2022/05/24 02:48:47;;;;;;;;;;;;;;;10.93;64.34;99574.86;107245;1270;124112;-67
2022/05/24 02:51:17;;;;;;;;;;;;;;;10.93;64.39;99569.11;107857;1270;107779;-67
2022/05/24 02:53:51;;;;;;;;;;;;;;;10.93;64.59;99569.64;106775;1270;96425;-66
2022/05/24 02:56:22;;;;;;;;;;;;;;;10.89;64.50;99565.24;106379;1270;124414;-67
2022/05/24 02:58:52;;;;;;;;;;;;;;;10.88;64.46;99565.66;106542;1270;110745;-67
2022/05/24 03:01:24;;;;;;;;;;;;;;;10.88;64.48;99561.66;106425;1270;124773;-67
2022/05/24 03:03:55;;;;;;;;;;;;;;;10.88;64.73;99560.06;106454;1270;108761;-67
2022/05/24 03:06:26;;;;;;;;;;;;;;;10.90;64.66;99558.59;106326;1271;96481;-66
2022/05/24 03:14:34;;;;;;;;;;;;;;;10.89;64.73;99564.38;107837;1270;123879;-67
2022/05/24 03:17:05;;;;;;;;;;;;;;;10.90;64.83;99573.21;106602;1271;108747;-67
2022/05/24 03:19:35;;;;;;;;;;;;;;;10.89;64.86;99567.54;107814;1270;124649;-67
2022/05/24 03:22:09;;;;;;;;;;;;;;;10.87;64.70;99562.39;107181;1270;96430;-67
2022/05/24 03:24:40;;;;;;;;;;;;;;;10.91;64.89;99563.45;106620;1270;111284;-68
2022/05/24 03:27:13;;;;;;;;;;;;;;;10.91;65.02;99556.31;107932;1270;107488;-67
2022/05/24 03:29:44;;;;;;;;;;;;;;;10.94;64.97;99562.61;107893;1270;107049;-67
2022/05/24 03:32:17;;;;;;;;;;;;;;;10.99;64.99;99565.23;107803;1270;125041;-67
2022/05/24 03:34:47;;;;;;;;;;;;;;;11.02;65.14;99564.53;107140;1270;94792;-67
2022/05/24 03:37:19;;;;;;;;;;;;;;;11.05;64.92;99563.02;106579;1270;123771;-67
2022/05/24 03:39:50;;;;;;;;;;;;;;;11.08;64.78;99560.22;106458;1270;109280;-66
2022/05/24 03:42:26;;;;;;;;;;;;;;;11.13;64.85;99563.16;106810;1271;108620;-65
2022/05/24 03:44:57;;;;;;;;;;;;;;;11.14;64.86;99559.64;107758;1270;124341;-67
2022/05/24 03:47:28;;;;;;;;;;;;;;;11.17;64.77;99559.17;107021;1270;96527;-66
2022/05/24 03:49:58;;;;;;;;;;;;;;;11.20;64.75;99557.95;106395;1270;123824;-66
2022/05/24 03:52:29;;;;;;;;;;;;;;;11.22;65.21;99555.11;106446;1270;108633;-67
2022/05/24 03:54:59;;;;;;;;;;;;;;;11.24;65.27;99553.06;107719;1270;124644;-66
2022/05/24 04:00:19;;;;;;;;;;;;;;;11.36;65.25;99548.69;107927;1270;94623;-67
2022/05/24 04:02:49;;;;;;;;;;;;;;;11.45;65.10;99549.98;107827;1270;125132;-67
2022/05/24 04:05:19;;;;;;;;;;;;;;;11.55;65.12;99556.19;107299;1270;107910;-67
2022/05/24 04:07:50;;;;;;;;;;;;;;;11.65;64.97;99549.44;107715;1270;123696;-67
2022/05/24 04:10:21;;;;;;;;;;;;;;;11.74;64.98;99547.77;106755;1270;96568;-67
2022/05/24 04:12:51;;;;;;;;;;;;;;;11.82;64.90;99545.86;106681;1270;123850;-67
2022/05/24 04:15:23;;;;;;;;;;;;;;;11.87;64.91;99544.75;107077;1270;110168;-66
2022/05/24 04:17:55;;;;;;;;;;;;;;;11.91;64.87;99549.41;106475;1270;108566;-66
2022/05/24 04:20:26;;;;;;;;;;;;;;;11.97;64.60;99551.06;107749;1271;124925;-66
2022/05/24 04:22:57;;;;;;;;;;;;;;;12.04;65.00;99558.38;107911;1269;96272;-67
2022/05/24 04:25:27;;;;;;;;;;;;;;;12.11;64.68;99558.20;107825;1270;124356;-67
2022/05/24 04:27:58;;;;;;;;;;;;;;;12.19;64.64;99557.46;107925;1270;111558;-66
2022/05/24 04:30:32;;;;;;;;;;;;;;;12.27;64.43;99550.60;107937;1270;110112;-67
2022/05/24 04:33:02;;;;;;;;;;;;;;;12.33;64.48;99546.61;107826;1270;123541;-66
2022/05/24 04:35:33;;;;;;;;;;;;;;;12.41;64.18;99553.91;107924;1270;95437;-66
2022/05/24 04:38:03;;;;;;;;;;;;;;;12.47;64.28;99549.95;107837;1271;124376;-67
2022/05/24 04:43:23;;;;;;;;;;;;;;;12.60;63.68;99549.44;106357;1271;124326;-66
2022/05/24 04:45:55;;;;;;;;;;;;;;;12.70;63.47;99548.55;106415;1270;109743;-66
2022/05/24 04:48:27;;;;;;;;;;;;;;;12.84;63.44;99548.34;106836;1270;96504;-67
2022/05/24 04:50:58;;;;;;;;;;;;;;;12.97;63.11;99547.85;106920;1270;124074;-66
2022/05/24 04:53:29;;;;;;;;;;;;;;;13.09;62.86;99550.90;107909;1270;111273;-66
2022/05/24 04:55:59;;;;;;;;;;;;;;;13.22;62.57;99553.14;107828;1270;124581;-67
2022/05/24 04:58:29;;;;;;;;;;;;;;;13.38;62.26;99551.97;107901;1271;107644;-67
2022/05/24 05:00:59;;;;;;;;;;;;;;;13.56;62.03;99554.43;107794;1270;125012;-67
2022/05/24 05:03:30;;;;;;;;;;;;;;;13.75;61.63;99554.77;107873;1271;94635;-67
2022/05/24 05:06:01;;;;;;;;;;;;;;;13.96;60.95;99554.66;107897;1270;111449;-67
2022/05/24 05:08:31;;;;;;;;;;;;;;;14.15;60.29;99547.44;107806;1270;123890;-67
2022/05/24 05:11:01;;;;;;;;;;;;;;;14.38;60.10;99548.37;107873;1271;108839;-67
2022/05/24 05:13:32;;;;;;;;;;;;;;;14.63;59.02;99546.35;107772;1270;124200;-67
2022/05/24 05:16:02;;;;;;;;;;;;;;;14.81;58.26;99547.71;107394;1270;95350;-66
2022/05/24 05:18:33;;;;;;;;;;;;;;;15.00;57.84;99554.95;106368;1271;111019;-67
2022/05/24 05:21:04;;;;;;;;;;;;;;;15.20;57.45;99553.05;106250;1271;123811;-67
2022/05/24 05:23:34;;;;;;;;;;;;;;;15.36;56.39;99554.29;106365;1270;108821;-67
2022/05/24 05:26:06;;;;;;;;;;;;;;;15.44;55.14;99563.46;106165;1272;124388;-67
2022/05/24 05:28:36;;;;;;;;;;;;;;;15.54;54.82;99556.86;106348;1271;96373;-68
2022/05/24 05:31:22;;;;;;;;;;;;;;;15.82;54.89;99559.83;106168;1271;124911;-66
2022/05/24 05:33:53;;;;;;;;;;;;;;;16.44;53.99;99560.39;106364;1271;109111;-67
2022/05/24 05:36:24;;;;;;;;;;;;;;;17.62;52.24;99559.11;107844;1271;107761;-68
2022/05/24 05:38:56;;;;;;;;;;;;;;;19.16;48.96;99548.00;107037;1271;124185;-67
2022/05/24 05:41:29;;;;;;;;;;;;;;;20.56;46.15;99541.30;106410;1271;96478;-68
2022/05/24 05:44:00;;;;;;;;;;;;;;;21.93;42.70;99542.08;106176;1271;124919;-68
2022/05/24 05:46:31;;;;;;;;;;;;;;;23.04;40.59;99528.89;106296;1271;109300;-67
2022/05/24 05:49:01;;;;;;;;;;;;;;;24.10;38.05;99534.40;106192;1271;123967;-67
2022/05/24 05:51:35;;;;;;;;;;;;;;;24.89;36.12;99525.79;106266;1272;96514;-67
2022/05/24 05:54:07;;;;;;;;;;;;;;;25.79;35.37;99525.65;106270;1273;96475;-67
2022/05/24 05:56:37;;;;;;;;;;;;;;;26.62;33.30;99523.54;106142;1271;123794;-66
2022/05/24 05:59:08;;;;;;;;;;;;;;;27.08;32.07;99517.26;106185;1272;108430;-66
2022/05/24 06:01:39;;;;;;;;;;;;;;;27.26;31.59;99511.55;106033;1273;124035;-67
2022/05/24 06:04:10;;;;;;;;;;;;;;;27.48;31.38;99510.85;106204;1273;96481;-66
2022/05/24 06:06:44;;;;;;;;;;;;;;;27.93;29.80;99519.92;106302;1271;96498;-67
2022/05/24 06:09:15;;;;;;;;;;;;;;;28.23;29.43;99504.77;106226;1274;110576;-66
2022/05/24 06:11:45;;;;;;;;;;;;;;;28.34;27.63;99503.71;106297;1271;108842;-68
2022/05/24 06:14:16;;;;;;;;;;;;;;;27.98;27.23;99506.39;106077;1274;123834;-66
2022/05/24 06:17:06;;;;;;;;;;;;;;;27.64;27.93;99502.89;106192;1274;96659;-68
2022/05/24 06:19:38;;;;;;;;;;;;;;;27.48;27.87;99525.47;106060;1274;123799;-67
2022/05/24 06:22:09;;;;;;;;;;;;;;;27.66;27.25;99522.14;106168;1273;111074;-68
2022/05/24 06:24:39;;;;;;;;;;;;;;;27.92;27.13;99525.02;106184;1274;109034;-67
2022/05/24 06:27:10;;;;;;;;;;;;;;;28.14;26.95;99524.77;106723;1271;108928;-67
2022/05/24 06:29:41;;;;;;;;;;;;;;;28.10;26.40;99526.85;106091;1273;96530;-67
2022/05/24 06:32:12;;;;;;;;;;;;;;;28.41;26.77;99516.76;106122;1274;123706;-66
2022/05/24 06:34:42;;;;;;;;;;;;;;;28.78;25.57;99520.73;106162;1273;110897;-68
2022/05/24 06:37:14;;;;;;;;;;;;;;;28.97;25.85;99520.52;105992;1274;124270;-66
2022/05/24 06:39:45;;;;;;;;;;;;;;;29.25;26.01;99517.93;106126;1273;108507;-67
2022/05/24 06:42:15;;;;;;;;;;;;;;;29.26;24.56;99531.91;106221;1274;96472;-68
2022/05/24 06:44:46;;;;;;;;;;;;;;;28.89;24.98;99512.82;107760;1271;123483;-65
2022/05/24 06:47:17;;;;;;;;;;;;;;;28.82;24.91;99513.30;107841;1271;110690;-66
2022/05/24 06:49:51;;;;;;;;;;;;;;;28.79;25.42;99508.77;107703;1271;123989;-65
2022/05/24 06:52:21;;;;;;;;;;;;;;;29.12;25.24;99515.02;106241;1271;107447;-67
2022/05/24 06:54:53;;;;;;;;;;;;;;;29.60;25.45;99508.31;106146;1273;124065;-68
2022/05/24 06:57:23;;;;;;;;;;;;;;;29.85;23.51;99513.27;107684;1272;95174;-66
2022/05/24 07:02:42;;;;;;;;;;;;;;;29.26;23.82;99515.00;107457;1271;123756;-67
2022/05/24 07:05:13;;;;;;;;;;;;;;;29.24;24.14;99514.80;106169;1271;108493;-67
2022/05/24 07:07:44;;;;;;;;;;;;;;;29.35;24.14;99505.07;106085;1273;124611;-67
2022/05/24 07:10:17;;;;;;;;;;;;;;;29.29;23.12;99502.27;107357;1273;94981;-67
2022/05/24 07:12:47;;;;;;;;;;;;;;;29.11;23.14;99514.11;107670;1271;124558;-67
2022/05/24 07:15:17;;;;;;;;;;;;;;;28.87;23.14;99500.88;107835;1271;106698;-67
2022/05/24 07:17:48;;;;;;;;;;;;;;;28.62;23.72;99484.04;106699;1271;109204;-67
2022/05/24 07:20:19;;;;;;;;;;;;;;;28.74;23.23;99495.30;107348;1270;123744;-67
2022/05/24 07:22:49;;;;;;;;;;;;;;;28.64;23.27;99478.78;106254;1271;96568;-67
2022/05/24 07:25:20;;;;;;;;;;;;;;;28.83;23.47;99487.27;106350;1270;123911;-67
2022/05/24 07:27:51;;;;;;;;;;;;;;;28.97;23.27;99490.25;106811;1271;108864;-66
2022/05/24 07:30:22;;;;;;;;;;;;;;;29.07;23.27;99494.85;106114;1273;109030;-66
2022/05/24 07:32:52;;;;;;;;;;;;;;;29.21;23.00;99491.77;107683;1273;124202;-66
2022/05/24 07:35:23;;;;;;;;;;;;;;;29.04;22.54;99500.59;106456;1273;96485;-66
2022/05/24 07:37:53;;;;;;;;;;;;;;;28.58;22.97;99508.15;106103;1273;123742;-66
2022/05/24 07:46:06;;;;;;;;;;;;;;;26.51;24.46;99505.18;106017;1277;96491;-67
2022/05/24 07:48:37;;;;;;;;;;;;;;;26.41;24.87;99493.70;105933;1277;96529;-67
2022/05/24 07:51:08;;;;;;;;;;;;;;;26.91;25.39;99491.98;106019;1276;124085;-66
2022/05/24 07:53:39;;;;;;;;;;;;;;;27.44;24.21;99498.80;106323;1276;107659;-65
2022/05/24 07:56:09;;;;;;;;;;;;;;;27.47;23.76;99488.75;107384;1276;124067;-66
2022/05/24 07:58:40;;;;;;;;;;;;;;;27.41;23.92;99502.48;107394;1276;94619;-68
2022/05/24 08:01:10;;;;;;;;;;;;;;;27.16;23.54;99516.44;107353;1276;125560;-67
2022/05/24 08:03:41;;;;;;;;;;;;;;;26.57;24.38;99524.09;107410;1276;110303;-67
2022/05/24 08:06:12;;;;;;;;;;;;;;;26.04;25.12;99507.45;107441;1276;107813;-66
2022/05/24 08:08:42;;;;;;;;;;;;;;;25.28;25.93;99518.88;107340;1276;124200;-66
2022/05/24 08:11:13;;;;;;;;;;;;;;;24.51;26.78;99518.34;107427;1276;95894;-66
2022/05/24 08:13:43;;;;;;;;;;;;;;;23.99;27.58;99518.55;107279;1276;123694;-67
2022/05/24 08:16:14;;;;;;;;;;;;;;;23.87;27.55;99522.08;107406;1276;111089;-67
2022/05/24 08:18:45;;;;;;;;;;;;;;;24.12;27.36;99510.58;107303;1276;124585;-66
2022/05/24 08:21:16;;;;;;;;;;;;;;;24.11;27.23;99530.36;107590;1273;107876;-78
2022/05/24 08:23:46;;;;;;;;;;;;;;;24.00;26.85;99542.67;106776;1273;96524;-66
2022/05/24 08:26:17;;;;;;;;;;;;;;;23.55;27.39;99533.80;106112;1271;124148;-66
2022/05/24 08:28:48;;;;;;;;;;;;;;;23.01;28.32;99523.04;107159;1271;110535;-66
2022/05/24 08:31:20;;;;;;;;;;;;;;;22.48;29.03;99552.84;106047;1273;124632;-66
2022/05/24 08:33:51;;;;;;;;;;;;;;;21.98;30.02;99547.49;107429;1271;108454;-66
2022/05/24 08:36:22;;;;;;;;;;;;;;;21.78;30.97;99528.59;106734;1273;96924;-66
2022/05/24 08:38:52;;;;;;;;;;;;;;;21.82;31.32;99538.98;107621;1271;123519;-66
2022/05/24 08:41:28;;;;;;;;;;;;;;;21.85;31.05;99530.23;107177;1271;111243;-65
2022/05/24 08:49:57;;;;;;;;;;;;;;;22.11;31.10;99535.65;106131;1270;123925;-65
2022/05/24 08:52:31;;;;;;;;;;;;;;;22.14;30.99;99521.19;106220;1271;96388;-66
2022/05/24 08:55:02;;;;;;;;;;;;;;;22.01;31.18;99525.24;106768;1271;127358;-65
2022/05/24 08:57:36;;;;;;;;;;;;;;;21.96;31.14;99519.65;107342;1271;106586;-65
2022/05/24 09:00:10;;;;;;;;;;;;;;;22.24;31.46;99519.81;106257;1271;109136;-66
2022/05/24 09:02:44;;;;;;;;;;;;;;;22.60;31.31;99511.10;107673;1271;123852;-66
2022/05/24 09:05:19;;;;;;;;;;;;;;;22.98;30.18;99532.32;107101;1271;96480;-66
2022/05/24 09:07:55;;;;;;;;;;;;;;;23.01;29.58;99538.08;106281;1271;123739;-65
2022/05/24 09:10:29;;;;;;;;;;;;;;;22.80;29.46;99515.06;107715;1271;108678;-65
2022/05/24 09:13:11;;;;;;;;;;;;;;;22.50;30.18;99510.23;107709;1270;123929;-65
2022/05/24 09:15:47;;;;;;;;;;;;;;;22.29;30.72;99497.31;107810;1271;94944;-66
2022/05/24 09:18:24;;;;;;;;;;;;;;;22.40;31.19;99490.99;107805;1270;94687;-66
2022/05/24 09:20:55;;;;;;;;;;;;;;;22.58;30.11;99520.17;107747;1271;123712;-66
2022/05/24 09:23:26;;;;;;;;;;;;;;;22.46;29.79;99495.95;107793;1271;109353;-66
2022/05/24 09:25:58;;;;;;;;;;;;;;;22.37;30.05;99497.01;107701;1271;123925;-66
2022/05/24 09:28:45;;;;;;;;;;;;;;;22.39;30.45;99491.09;107493;1270;94942;-66
2022/05/24 09:31:20;;;;;;;;;;;;;;;22.43;30.30;99497.33;107381;1270;123768;-66
2022/05/24 09:33:55;;;;;;;;;;;;;;;22.38;30.82;99476.14;107453;1270;108326;-66
2022/05/24 09:36:33;;;;;;;;;;;;;;;22.27;30.76;99485.70;107508;1270;108963;-66
2022/05/24 09:39:07;;;;;;;;;;;;;;;22.16;31.16;99492.56;107405;1270;123907;-66
2022/05/24 09:41:37;;;;;;;;;;;;;;;22.18;31.41;99482.83;107459;1270;95256;-65
2022/05/24 09:44:14;;;;;;;;;;;;;;;22.25;31.06;99487.04;105840;1270;123815;-66
2022/05/24 09:46:45;;;;;;;;;;;;;;;22.29;31.31;99475.40;107489;1270;109546;-66
2022/05/24 09:49:23;;;;;;;;;;;;;;;22.35;31.06;99478.08;105815;1270;125678;-65
2022/05/24 09:51:56;;;;;;;;;;;;;;;22.31;31.01;99466.02;107456;1270;106934;-66
2022/05/24 09:54:27;;;;;;;;;;;;;;;22.23;31.17;99473.14;106869;1270;240254;-66
2022/05/24 09:57:11;;;;;;;;;;;;;;;22.17;31.30;99470.70;105965;1269;123677;-67
2022/05/24 09:59:57;;;;;;;;;;;;;;;21.98;31.14;99477.40;107486;1270;111198;-66
2022/05/24 10:02:28;;;;;;;;;;;;;;;21.74;31.69;99476.52;107373;1271;123806;-66
2022/05/24 10:05:00;;;;;;;;;;;;;;;21.59;32.36;99489.06;106250;1270;108754;-67
2022/05/24 10:07:32;;;;;;;;;;;;;;;21.42;32.34;99500.48;106460;1270;123932;-67
2022/05/24 10:10:07;;;;;;;;;;;;;;;21.24;32.71;99489.23;107316;1270;95920;-66
2022/05/24 10:12:54;;;;;;;;;;;;;;;21.07;32.14;99503.33;105945;1271;110947;-66
2022/05/24 10:15:29;;;;;;;;;;;;;;;20.91;32.21;99493.14;107497;1270;110367;-66
2022/05/24 10:18:04;;;;;;;;;;;;;;;20.82;32.74;99483.25;107499;1270;107781;-66
2022/05/24 10:20:38;;;;;;;;;;;;;;;20.71;33.35;99499.05;107527;1271;124041;-66
2022/05/24 10:23:13;;;;;;;;;;;;;;;20.65;33.63;99483.05;107378;1273;96575;-66
2022/05/24 10:25:49;;;;;;;;;;;;;;;20.64;34.10;99475.85;106333;1271;125297;-66
2022/05/24 10:28:29;;;;;;;;;;;;;;;20.67;34.24;99468.54;106956;1270;108851;-66
2022/05/24 10:31:04;;;;;;;;;;;;;;;20.77;34.16;99468.18;107137;1271;124033;-66
2022/05/24 10:39:26;;;;;;;;;;;;;;;20.75;33.77;99457.58;107324;1270;111461;-66
2022/05/24 10:42:01;;;;;;;;;;;;;;;20.77;33.63;99465.20;107703;1271;109488;-65
2022/05/24 10:44:37;;;;;;;;;;;;;;;20.78;33.62;99464.00;107301;1271;123962;-67
2022/05/24 10:47:09;;;;;;;;;;;;;;;20.81;33.86;99466.58;107831;1271;95235;-66
2022/05/24 10:49:43;;;;;;;;;;;;;;;20.80;33.54;99471.73;107741;1271;123611;-66
2022/05/24 10:52:18;;;;;;;;;;;;;;;20.76;33.84;99459.98;107880;1271;110916;-67
2022/05/24 10:54:51;;;;;;;;;;;;;;;20.80;33.83;99464.20;107690;1271;125716;-67
2022/05/24 10:57:23;;;;;;;;;;;;;;;20.83;33.94;99471.54;107775;1271;108212;-67
2022/05/24 10:59:55;;;;;;;;;;;;;;;20.85;33.87;99464.83;107156;1271;96470;-67
2022/05/24 11:02:31;;;;;;;;;;;;;;;20.86;33.80;99456.83;106703;1271;124969;-66
2022/05/24 11:05:07;;;;;;;;;;;;;;;20.87;32.82;99450.02;107835;1271;111134;-66
2022/05/24 11:07:38;;;;;;;;;;;;;;;20.93;32.86;99452.48;107633;1271;124924;-66
2022/05/24 11:10:11;;;;;;;;;;;;;;;20.93;32.91;99459.68;107809;1271;109995;-66
2022/05/24 11:12:45;;;;;;;;;;;;;;;20.91;33.19;99457.81;106903;1271;96459;-67
2022/05/24 11:15:19;;;;;;;;;;;;;;;20.77;32.96;99475.91;106568;1273;96600;-67
2022/05/24 11:17:50;;;;;;;;;;;;;;;20.61;33.34;99477.00;107822;1271;111153;-65
2022/05/24 11:20:25;;;;;;;;;;;;;;;20.43;33.50;99473.55;107712;1270;124617;-66
2022/05/24 11:23:04;;;;;;;;;;;;;;;20.34;34.06;99470.08;107474;1272;107315;-66
2022/05/24 11:25:39;;;;;;;;;;;;;;;20.21;34.25;99471.86;106151;1271;124055;-67
2022/05/24 11:28:16;;;;;;;;;;;;;;;20.07;34.17;99467.55;106245;1271;96487;-67
2022/05/24 11:30:47;;;;;;;;;;;;;;;19.91;34.37;99478.99;106635;1271;123778;-66
2022/05/24 11:33:18;;;;;;;;;;;;;;;19.78;34.69;99464.71;107287;1271;108958;-67
2022/05/24 11:35:52;;;;;;;;;;;;;;;19.72;34.92;99465.70;107208;1273;109100;-67
2022/05/24 11:38:35;;;;;;;;;;;;;;;19.67;34.77;99467.79;107194;1271;123872;-67
2022/05/24 11:41:19;;;;;;;;;;;;;;;19.67;35.08;99470.44;107886;1270;95569;-67
2022/05/24 11:44:03;;;;;;;;;;;;;;;19.74;35.26;99473.00;107758;1270;124802;-68
2022/05/24 11:46:46;;;;;;;;;;;;;;;19.81;35.33;99473.63;107179;1271;108869;-67
2022/05/24 11:49:39;;;;;;;;;;;;;;;19.91;35.42;99478.27;107027;1271;124794;-66
2022/05/24 11:52:23;;;;;;;;;;;;;;;20.01;34.94;99472.38;107701;1271;95220;-67
2022/05/24 11:54:56;;;;;;;;;;;;;;;20.13;34.96;99461.95;107755;1271;125026;-67
2022/05/24 11:57:38;;;;;;;;;;;;;;;20.28;34.50;99479.45;107848;1271;109899;-66
2022/05/24 12:00:11;;;;;;;;;;;;;;;20.38;34.22;99467.28;106705;1271;109084;-68
2022/05/24 12:08:36;;;;;;;;;;;;;;;20.72;33.97;99472.02;106191;1273;124692;-67
2022/05/24 12:11:17;;;;;;;;;;;;;;;20.78;34.07;99462.91;107159;1272;111139;-67
2022/05/24 12:14:10;;;;;;;;;;;;;;;20.83;33.79;99474.40;107386;1271;124260;-67
2022/05/24 12:16:43;;;;;;;;;;;;;;;20.80;33.75;99475.10;107760;1271;108868;-68
2022/05/24 12:19:33;;;;;;;;;;;;;;;20.77;33.76;99467.23;107636;1271;124004;-67
2022/05/24 12:22:07;;;;;;;;;;;;;;;20.77;33.94;99482.07;107622;1271;95071;-67
2022/05/24 12:24:58;;;;;;;;;;;;;;;20.77;33.86;99479.98;107514;1271;111607;-68
2022/05/24 12:27:57;;;;;;;;;;;;;;;20.75;34.15;99491.44;107833;1270;108866;-67
2022/05/24 12:30:37;;;;;;;;;;;;;;;20.70;34.37;99471.23;106363;1271;106648;-65
2022/05/24 12:33:11;;;;;;;;;;;;;;;20.70;34.39;99468.30;107520;1271;124600;-68
2022/05/24 12:35:50;;;;;;;;;;;;;;;20.73;34.92;99469.56;106395;1271;96561;-66
2022/05/24 12:38:23;;;;;;;;;;;;;;;20.71;34.72;99466.05;106358;1271;123773;-67
2022/05/24 12:41:07;;;;;;;;;;;;;;;20.68;34.82;99466.13;106614;1271;107763;-67
2022/05/24 12:43:55;;;;;;;;;;;;;;;20.63;34.86;99464.27;106191;1271;123805;-66
2022/05/24 12:46:28;;;;;;;;;;;;;;;20.59;35.03;99441.16;106447;1271;96470;-66
2022/05/24 12:49:00;;;;;;;;;;;;;;;20.61;34.96;99438.15;106424;1270;123836;-68
2022/05/24 12:51:31;;;;;;;;;;;;;;;20.60;35.21;99445.27;106578;1271;110988;-67
2022/05/24 12:54:12;;;;;;;;;;;;;;;20.64;35.31;99443.89;107146;1271;107867;-65
2022/05/24 12:56:52;;;;;;;;;;;;;;;20.69;35.25;99458.45;106414;1271;124538;-66
2022/05/24 12:59:28;;;;;;;;;;;;;;;20.69;34.70;99452.33;107829;1271;95070;-66
2022/05/24 13:01:59;;;;;;;;;;;;;;;20.66;35.31;99454.31;107716;1271;123895;-67
2022/05/24 13:04:32;;;;;;;;;;;;;;;20.64;35.48;99464.40;106912;1270;110937;-66
2022/05/24 13:07:22;;;;;;;;;;;;;;;20.62;35.52;99463.14;106687;1271;124081;-66
2022/05/24 13:09:53;;;;;;;;;;;;;;;20.57;35.88;99466.55;107816;1272;108787;-67
2022/05/24 13:12:24;;;;;;;;;;;;;;;20.49;36.03;99463.86;106399;1272;96470;-67
2022/05/24 13:14:57;;;;;;;;;;;;;;;20.43;36.03;99464.89;106180;1271;123918;-66
2022/05/24 13:17:28;;;;;;;;;;;;;;;20.36;35.73;99457.93;106977;1271;110393;-67
2022/05/24 13:20:00;;;;;;;;;;;;;;;20.29;35.94;99462.77;107773;1270;123760;-67
2022/05/24 13:22:40;;;;;;;;;;;;;;;20.20;35.92;99460.88;106671;1272;108895;-67
2022/05/24 13:25:19;;;;;;;;;;;;;;;20.07;35.71;99465.35;106106;1271;125052;-67
2022/05/24 13:28:05;;;;;;;;;;;;;;;19.96;35.90;99457.93;107790;1270;94654;-66
2022/05/24 13:33:38;;;;;;;;;;;;;;;19.76;35.93;99456.81;107484;1276;107668;-66
2022/05/24 13:36:23;;;;;;;;;;;;;;;19.70;35.97;99460.98;107487;1276;108732;-65
2022/05/24 13:39:07;;;;;;;;;;;;;;;19.63;36.50;99464.36;107408;1276;124882;-66
2022/05/24 13:41:38;;;;;;;;;;;;;;;19.58;36.48;99460.60;107348;1277;95086;-66
2022/05/24 13:44:22;;;;;;;;;;;;;;;19.55;36.70;99461.66;107307;1275;124826;-66
2022/05/24 13:46:58;;;;;;;;;;;;;;;19.52;36.71;99463.64;106337;1276;108701;-65